Aeroporto :
LOGIN :

Iscrizione | Disclaimer

   EN    FR    IT 

 










Sommario :    VFR   VFR Marginale   IFR   IFR Intensivo   IFR Molto Intensivo
Visibilità : 
Base nubi : 
>= 8 km
>= 3000ft
5 / 8 km
1000 / 3000 ft
1500m / 5 km
500 / 1000 ft
800 / 1500m
200 / 500 ft
< 800m
< 200 ft
Simboli :   Temporali  Nebbia  Neve Forte  Precipitazioni Forti  Vento > 20 kt
SIGMETs :   Varie  Temporali  Ghiacco  Turbolenza  Onda orograficha  Ceneri Vulcaniche







- Altitudine del aeroporto : 242 ft
- Codice IATA : DUB


EIDW - Dublin

ULTIMO METAR :
  • 221800Z 13006KT 080V170 9999 FEW024 SCT080 BKN140 13/08 Q1018 NOSIG

METARs OBSOLETI :
  • 221730Z 12007KT 090V150 9999 FEW024 SCT110 BKN130 13/08 Q1018 NOSIG
  • 221700Z 13005KT 100V170 9999 FEW024 SCT110 BKN130 13/08 Q1018 NOSIG
  • 221630Z 12007KT 090V150 9999 FEW022 BKN120 BKN250 13/08 Q1018 NOSIG
  • 221600Z 12008KT 090V180 9999 FEW022 BKN120 BKN250 13/08 Q1018 NOSIG
  • 221530Z 12006KT 090V160 9999 FEW022 BKN120 BKN250 13/08 Q1019 NOSIG

TAF TAF EIDW
Valido dal 22 a 18 ore il 23 a 18 ore UTC


221700Z 2218/2318 13008KT 9999 FEW025 SCT050
BECMG 2219/2222 09005KT
BECMG 2222/2224 VRB03KT
PROB40
TEMPO 2223/2306 3000 BR BKN007
BECMG 2306/2309 25005KT
Nessun NOTAM noto per questo aeroporto.



MetMap, La meteo Aeronautica in un colpo d'occhio ! - Copyright ORBIFLY Dicembre 2007 - Disclaimer

ORBIFLY MET'MAP TEAM :

Programmazione e sviluppo : Alexandra Zaïnal
Concezione e sviluppo : Baudouin d'Aumeries
Co-Programmazione e sviluppo : Marc-Olivier Méhu
Supporto tecnico e logistico : Manuel Goepfert
Aiuto per la traduzione : Arnaldo La Scala

Contatto : metmap@orbifly.com




FONTI E CREDITI :

   NOAA